sensor_id;sensor_type;location;lat;lon;timestamp;P1;P2;P0
84646;PMS5003;74876;52.404;16.896;2024-01-30T00:00:09;65.56763441882183;63.63917458297413;26.034207783943963
84646;PMS5003;74876;52.404;16.896;2024-01-30T00:20:09;46.28978089263538;46.28978089263538;21.216149575791214
84646;PMS5003;74876;52.404;16.896;2024-01-30T00:35:09;49.328608858263436;49.328608858263436;24.180690616795804
84646;PMS5003;74876;52.404;16.896;2024-01-30T00:50:09;41.546060407723346;35.74893569966893;15.458999221478454
84646;PMS5003;74876;52.404;16.896;2024-01-30T01:05:09;59.84309997814604;45.36493062859458;22.199859669312243
84646;PMS5003;74876;52.404;16.896;2024-01-30T01:20:09;31.945833322505823;31.945833322505823;25.16944443591368
84646;PMS5003;74876;52.404;16.896;2024-01-30T01:35:09;42.55497233957784;37.71918002826217;24.178961556578315
84646;PMS5003;74876;52.404;16.896;2024-01-30T01:50:09;50.29583648293527;48.36138123359161;24.180690616795804
84646;PMS5003;74876;52.404;16.896;2024-01-30T02:05:09;55.18308976756238;51.310592240014145;24.20310954717648
84646;PMS5003;74876;52.404;16.896;2024-01-30T02:20:09;40.690072062622654;40.690072062622654;19.376224791725075
84646;PMS5003;74876;52.404;16.896;2024-01-30T02:35:10;59.03457947404145;55.163459508530536;17.420039844799117
84646;PMS5003;74876;52.404;16.896;2024-01-30T02:50:10;50.27063296189383;45.436918254019425;18.368115889922745
84646;PMS5003;74876;52.404;16.896;2024-01-30T03:05:10;65.62961285329806;54.047916467421935;28.95424096469032
84646;PMS5003;74876;52.404;16.896;2024-01-30T03:20:09;36.654078377546824;33.7603353477405;16.39787716890253
84646;PMS5003;74876;52.404;16.896;2024-01-30T03:35:09;45.453195872306885;43.51901732454914;20.308874751456266
84646;PMS5003;74876;52.404;16.896;2024-01-30T03:50:09;41.661830751791115;38.75519139701499;23.253114838208994
84646;PMS5003;74876;52.404;16.896;2024-01-30T04:05:09;44.51787960337552;44.51787960337552;17.420039844799117
84646;PMS5003;74876;52.404;16.896;2024-01-30T04:20:09;42.530585947254764;36.73096059081094;17.398876069331497
84646;PMS5003;74876;52.404;16.896;2024-01-30T04:35:09;36.670054594081336;33.77505028402228;19.300028733727018
84646;PMS5003;74876;52.404;16.896;2024-01-30T04:50:09;23.211803094315183;23.211803094315183;13.540218471683858
84646;PMS5003;74876;52.404;16.896;2024-01-30T05:05:09;33.8722996982205;33.8722996982205;17.420039844799117
84646;PMS5003;74876;52.404;16.896;2024-01-30T05:20:09;63.95058811777136;51.35426015518003;17.441069486664915
84646;PMS5003;74876;52.404;16.896;2024-01-30T05:40:09;45.44017622743509;35.772053625853154;13.535371642214706
84646;PMS5003;74876;52.404;16.896;2024-01-30T05:55:09;54.97711817600107;37.615922962527044;21.219238594246026
84646;PMS5003;74876;52.404;16.896;2024-01-30T06:10:10;45.28902402548654;45.28902402548654;19.271925117228314
84646;PMS5003;74876;52.404;16.896;2024-01-30T06:25:10;41.4528144254839;41.4528144254839;20.244397742678185
84646;PMS5003;74876;52.404;16.896;2024-01-30T06:40:10;46.23228460495015;42.37959422120431;22.152969706538617
84646;PMS5003;74876;52.404;16.896;2024-01-30T06:55:10;37.54164140179429;37.54164140179429;16.36430522642315
84646;PMS5003;74876;52.404;16.896;2024-01-30T07:10:10;39.587981075854685;39.587981075854685;19.311210280904724
84646;PMS5003;74876;52.404;16.896;2024-01-30T07:25:10;40.70445590361515;35.85868734366097;15.50645939185339
84646;PMS5003;74876;52.404;16.896;2024-01-30T07:40:09;46.816541113011354;43.89050729344814;15.605513704337117
84646;PMS5003;74876;52.404;16.896;2024-01-30T07:55:09;56.92119407282803;51.03279468598375;21.590797751762356
84646;PMS5003;74876;52.404;16.896;2024-01-30T08:10:09;29.614228343633137;29.614228343633137;15.79425511660434
84646;PMS5003;74876;52.404;16.896;2024-01-30T08:25:09;40.77993126919002;36.801401389269046;18.898016929624646
84646;PMS5003;74876;52.404;16.896;2024-01-30T08:45:09;36.13416914525529;36.13416914525529;18.067084572627646
84646;PMS5003;74876;52.404;16.896;2024-01-30T09:00:09;51.476179170492166;45.42015809161074;21.19607377608501
84646;PMS5003;74876;52.404;16.896;2024-01-30T09:15:09;54.76947264989267;54.76947264989267;22.31348885736368
84646;PMS5003;74876;52.404;16.896;2024-01-30T09:30:09;75.44395730042105;59.131750316546224;25.487823412304408
84646;PMS5003;74876;52.404;16.896;2024-01-30T09:45:09;61.70892613290208;56.56651562182691;19.54115994208566
84646;PMS5003;74876;52.404;16.896;2024-01-30T10:00:09;51.481543952775674;47.36302043655362;25.740771976387837
84646;PMS5003;74876;52.404;16.896;2024-01-30T10:15:09;47.907570072994815;47.907570072994815;23.953785036497408
84646;PMS5003;74876;52.404;16.896;2024-01-30T10:30:09;45.179208389038216;45.179208389038216;18.912226767504368
84646;PMS5003;74876;52.404;16.896;2024-01-30T10:45:09;34.28047328879834;34.28047328879834;18.21150143467412
84646;PMS5003;74876;52.404;16.896;2024-01-30T11:00:10;34.70879476626455;31.45484525692725;19.52369705602381
84646;PMS5003;74876;52.404;16.896;2024-01-30T11:15:10;31.832813265160183;27.442080401000158;15.36756502456009
84646;PMS5003;74876;52.404;16.896;2024-01-30T11:30:09;29.726110361278945;29.726110361278945;17.61547280668382
84646;PMS5003;74876;52.404;16.896;2024-01-30T11:50:09;27.67951291159226;27.67951291159226;16.607707746955356
84646;PMS5003;74876;52.404;16.896;2024-01-30T12:35:09;40.19855703535766;34.61542411378021;17.86602534904785
84646;PMS5003;74876;52.404;16.896;2024-01-30T13:37:31;12.333957620868858;12.333957620868858;4.111319206956286
84646;PMS5003;74876;52.404;16.896;2024-01-30T13:50:09;37.65633714600762;37.65633714600762;20.5398202614587
84646;PMS5003;74876;52.404;16.896;2024-01-30T14:05:10;48.787304696296175;43.11436228975011;22.691769626184268
84646;PMS5003;74876;52.404;16.896;2024-01-30T14:25:09;51.86512727377208;41.71760237238189;25.93256363688604
84646;PMS5003;74876;52.404;16.896;2024-01-30T14:40:09;35.95126197126614;35.95126197126614;15.728677112428937
84646;PMS5003;74876;52.404;16.896;2024-01-30T14:55:09;44.23809659115879;44.23809659115879;18.801191051242483
84646;PMS5003;74876;52.404;16.896;2024-01-30T15:10:09;42.34555543006411;42.34555543006411;20.629885978749183
84646;PMS5003;74876;52.404;16.896;2024-01-30T15:25:09;47.16230432546424;42.874822114058404;23.58115216273212
84646;PMS5003;74876;52.404;16.896;2024-01-30T15:40:09;74.08265789044314;67.73271578554802;34.9246815769232
84646;PMS5003;74876;52.404;16.896;2024-01-30T15:55:09;66.10503109770595;57.71074143450519;28.330727613302546
84646;PMS5003;74876;52.404;16.896;2024-01-30T16:10:09;48.907063081773;48.907063081773;26.014395256262233
84646;PMS5003;74876;52.404;16.896;2024-01-30T16:25:09;48.59636279412626;45.494467296628834;33.086885306639154
84646;PMS5003;74876;52.404;16.896;2024-01-30T16:40:09;41.17726298964294;41.17726298964294;20.58863149482147
84646;PMS5003;74876;52.404;16.896;2024-01-30T16:55:09;52.31366753314867;52.31366753314867;28.721229233885545
84646;PMS5003;74876;52.404;16.896;2024-01-30T17:10:09;72.68381528393427;65.51780532636329;33.782618371406066
84646;PMS5003;74876;52.404;16.896;2024-01-30T17:25:09;69.5672144698888;61.382836296960704;29.66837087686434
84646;PMS5003;74876;52.404;16.896;2024-01-30T17:40:09;86.92834334776413;76.70147942449776;39.88476930073884
84646;PMS5003;74876;52.404;16.896;2024-01-30T17:55:10;86.75195990028716;83.6901260214535;34.70078396011486
84646;PMS5003;74876;52.404;16.896;2024-01-30T18:10:10;96.75881138613354;85.55515954142334;44.8146073788408
84646;PMS5003;74876;52.404;16.896;2024-01-30T18:25:10;87.39607403305277;82.31490693810784;46.746737273493345
84646;PMS5003;74876;52.404;16.896;2024-01-30T18:40:10;99.41756569626436;85.21505631108374;39.56413328728888
84646;PMS5003;74876;52.404;16.896;2024-01-30T18:55:10;93.4443288441098;80.24023889874645;38.59657060952361
84646;PMS5003;74876;52.404;16.896;2024-01-30T19:25:09;109.47707753533275;74.68996878578777;38.87970977890322
84646;PMS5003;74876;52.404;16.896;2024-01-30T19:40:09;82.77556250830472;64.15106094393616;32.07553047196808
84646;PMS5003;74876;52.404;16.896;2024-01-30T19:55:09;58.08601290078975;52.899761748933514;23.856755298538644
84646;PMS5003;74876;52.404;16.896;2024-01-30T20:10:09;49.68860542349916;43.47752974556177;20.70358559312465
84646;PMS5003;74876;52.404;16.896;2024-01-30T20:25:09;44.50854428810524;44.50854428810524;24.84197820731455
84646;PMS5003;74876;52.404;16.896;2024-01-30T20:40:09;53.79654145256455;53.79654145256455;25.863721852194494
84646;PMS5003;74876;52.404;16.896;2024-01-30T20:55:09;70.1530269995355;57.773081058441;28.8865405292205
84646;PMS5003;74876;52.404;16.896;2024-01-30T21:10:09;56.59128341779304;51.44662128890277;25.723310644451384
84646;PMS5003;74876;52.404;16.896;2024-01-30T21:25:09;45.184612575923985;45.184612575923985;24.646152314140355
84646;PMS5003;74876;52.404;16.896;2024-01-30T21:40:09;49.14081751781294;49.14081751781294;22.522874695664264
84646;PMS5003;74876;52.404;16.896;2024-01-30T21:55:09;59.219629055812085;51.0514043584587;25.52570217922935
84646;PMS5003;74876;52.404;16.896;2024-01-30T22:10:09;42.72203319230267;42.72203319230267;21.361016596151334
84646;PMS5003;74876;52.404;16.896;2024-01-30T22:25:09;45.555924098775535;42.5188624921905;20.247077377233573
84646;PMS5003;74876;52.404;16.896;2024-01-30T22:40:09;44.30310173831294;41.282435710700696;19.130884841544226
84646;PMS5003;74876;52.404;16.896;2024-01-30T22:55:09;45.136914781804805;45.136914781804805;20.06085101413547
84646;PMS5003;74876;52.404;16.896;2024-01-30T23:10:09;42.96956838148256;42.96956838148256;23.983014910594914
84646;PMS5003;74876;52.404;16.896;2024-01-30T23:25:09;45.86499569346605;45.86499569346605;24.926628094275024
84646;PMS5003;74876;52.404;16.896;2024-01-30T23:40:09;46.8204009187234;40.84332846101403;16.93503863017655
84646;PMS5003;74876;52.404;16.896;2024-01-30T23:55:10;41.78709407568823;41.78709407568823;22.883408660495938
